Plainville, Georgia
Current Conditions -  °F | °C
As of 5:53 AM on Thursday 18 Dec 2014 (Local Time) from KRMG Reporting Station
Clear Clear  
Wind Chill: 33°   Ceiling: Unl
Heat Index: 37°   Visibility: 10mi
Dew Point: 30°   Wind: 5mph
Humidity: 76%   Direction: 350°N
Pressure: 30.19"   Gusts: NA
Location:  34.41°N, 85.04°W
Report Text: KRMG 181053Z AUTO 35004KT 10SM CLR 03/M01 A3019 RMK AO2 SLP222 T00281011
Loading
Personal Weather Stations






























Interactive Weather Map New forecast layout! Learn more

10-Day Weather Forecast

Advertisements
Track Severe Weather on mobile